createdAt,value
2023-02-15T00:02:00.426Z,3.10
2023-02-15T00:04:50.744Z,3.00
2023-02-15T00:07:19.536Z,3.00
2023-02-15T00:09:47.429Z,3.00
2023-02-15T00:12:15.069Z,3.60
2023-02-15T00:14:41.895Z,2.90
2023-02-15T00:17:11.243Z,2.60
2023-02-15T00:19:38.248Z,2.70
2023-02-15T00:22:05.045Z,2.60
2023-02-15T00:24:31.819Z,2.60
2023-02-15T00:26:58.660Z,2.70
2023-02-15T00:29:26.217Z,2.70
2023-02-15T00:31:53.315Z,2.90
2023-02-15T00:34:25.747Z,3.00
2023-02-15T00:36:53.564Z,2.90
2023-02-15T00:39:21.253Z,2.70
2023-02-15T00:41:48.526Z,2.70
2023-02-15T00:44:15.774Z,2.70
2023-02-15T00:46:43.113Z,2.70
2023-02-15T00:49:10.145Z,2.80
2023-02-15T00:51:37.058Z,2.70
2023-02-15T00:54:03.918Z,3.50
2023-02-15T00:56:30.953Z,2.80
2023-02-15T00:58:57.841Z,2.90
2023-02-15T01:01:25.053Z,2.90
2023-02-15T01:03:52.207Z,3.00
2023-02-15T01:06:19.103Z,3.30
2023-02-15T01:08:46.789Z,3.00
2023-02-15T01:11:16.450Z,2.90
2023-02-15T01:13:43.245Z,3.90
2023-02-15T01:16:10.285Z,2.80
2023-02-15T01:18:37.388Z,3.60
2023-02-15T01:21:30.267Z,2.50
2023-02-15T01:23:57.004Z,2.60
2023-02-15T01:26:23.900Z,2.30
2023-02-15T01:28:50.670Z,2.40
2023-02-15T01:31:20.964Z,2.40
2023-02-15T01:33:48.779Z,2.30
2023-02-15T01:36:15.726Z,2.90
2023-02-15T01:38:42.846Z,2.20
2023-02-15T01:41:25.652Z,2.20
2023-02-15T01:43:56.495Z,2.20
2023-02-15T01:46:34.334Z,2.20
2023-02-15T01:49:06.295Z,2.30
2023-02-15T01:51:37.209Z,2.20
2023-02-15T01:54:18.642Z,2.20
2023-02-15T01:56:46.293Z,2.10
2023-02-15T01:59:20.821Z,2.20
2023-02-15T02:01:48.122Z,2.10
2023-02-15T02:04:20.708Z,2.20
2023-02-15T02:06:49.898Z,2.20
2023-02-15T02:09:17.154Z,2.10
2023-02-15T02:11:47.347Z,2.30
2023-02-15T02:14:14.500Z,2.50
2023-02-15T02:16:52.208Z,2.60
2023-02-15T02:19:38.683Z,2.60
2023-02-15T02:22:23.322Z,2.50
2023-02-15T02:25:13.984Z,3.00
2023-02-15T02:27:50.510Z,1.80
2023-02-15T02:30:49.078Z,1.80
2023-02-15T02:33:21.274Z,1.90
2023-02-15T02:36:17.897Z,1.70
2023-02-15T02:39:04.918Z,1.60
2023-02-15T02:41:49.922Z,1.40
2023-02-15T02:44:22.400Z,1.50
2023-02-15T02:46:53.026Z,1.80
2023-02-15T02:49:37.834Z,2.10
2023-02-15T02:52:26.932Z,1.80
2023-02-15T02:54:54.877Z,2.00
2023-02-15T02:57:25.312Z,1.90
2023-02-15T02:59:54.835Z,2.20
2023-02-15T03:02:28.518Z,1.70
2023-02-15T03:05:04.724Z,2.60
2023-02-15T03:07:33.293Z,2.10
2023-02-15T03:10:02.551Z,1.80
2023-02-15T03:12:41.174Z,1.80
2023-02-15T03:15:13.945Z,1.90
2023-02-15T03:17:48.102Z,2.20
2023-02-15T03:20:16.799Z,2.40
2023-02-15T03:22:49.211Z,2.30
2023-02-15T03:25:26.273Z,2.40
2023-02-15T03:28:16.097Z,2.20
2023-02-15T03:30:46.978Z,2.10
2023-02-15T03:33:15.844Z,1.90
2023-02-15T03:35:53.896Z,1.90
2023-02-15T03:38:35.049Z,3.30
2023-02-15T03:41:13.043Z,1.80
2023-02-15T03:43:47.721Z,1.80
2023-02-15T03:46:33.876Z,1.80
2023-02-15T03:49:21.231Z,1.90
2023-02-15T03:51:51.391Z,1.90
2023-02-15T03:54:47.420Z,2.10
2023-02-15T03:57:35.341Z,2.00
2023-02-15T04:00:25.099Z,2.10
2023-02-15T04:02:57.911Z,2.30
2023-02-15T04:05:24.766Z,2.00
2023-02-15T04:07:51.557Z,1.90
2023-02-15T04:10:36.877Z,2.00
2023-02-15T04:13:03.998Z,2.10
2023-02-15T04:15:49.565Z,2.10
2023-02-15T04:18:16.286Z,2.50
2023-02-15T04:21:05.706Z,2.20
2023-02-15T04:23:51.452Z,2.20
2023-02-15T04:26:18.291Z,2.10
2023-02-15T04:28:45.130Z,2.10
2023-02-15T04:31:11.968Z,2.30
2023-02-15T04:33:38.864Z,1.90
2023-02-15T04:36:06.992Z,1.90
2023-02-15T04:38:33.742Z,1.90
2023-02-15T04:41:00.486Z,2.00
2023-02-15T04:43:27.246Z,1.90
2023-02-15T04:45:54.088Z,2.00
2023-02-15T04:48:20.815Z,1.80
2023-02-15T04:50:47.548Z,1.90
2023-02-15T04:53:14.606Z,2.10
2023-02-15T04:55:41.784Z,2.00
2023-02-15T04:58:08.504Z,2.20
2023-02-15T05:00:35.237Z,0.90
2023-02-15T05:03:01.994Z,2.30
2023-02-15T05:05:28.721Z,3.30
2023-02-15T05:07:55.513Z,2.60
2023-02-15T05:10:22.299Z,2.00
2023-02-15T05:12:49.345Z,2.00
2023-02-15T05:15:16.089Z,1.90
2023-02-15T05:17:43.146Z,1.90
2023-02-15T05:20:10.336Z,2.50
2023-02-15T05:22:37.225Z,1.60
2023-02-15T05:25:22.706Z,1.80
2023-02-15T05:28:08.053Z,1.60
2023-02-15T05:30:35.047Z,1.90
2023-02-15T05:33:01.841Z,2.20
2023-02-15T05:35:28.595Z,1.90
2023-02-15T05:37:55.363Z,1.90
2023-02-15T05:40:22.199Z,1.80
2023-02-15T05:42:48.934Z,1.70
2023-02-15T05:45:16.543Z,1.70
2023-02-15T05:47:43.720Z,1.70
2023-02-15T05:50:12.200Z,1.70
2023-02-15T05:52:38.976Z,1.70
2023-02-15T05:55:06.848Z,1.70
2023-02-15T05:57:33.773Z,1.70
2023-02-15T06:00:00.556Z,1.80
2023-02-15T06:02:27.464Z,2.10
2023-02-15T06:04:54.264Z,1.90
2023-02-15T06:07:21.358Z,2.00
2023-02-15T06:09:48.175Z,2.50
2023-02-15T06:12:14.968Z,1.80
2023-02-15T06:14:41.826Z,1.70
2023-02-15T06:17:08.667Z,1.60
2023-02-15T06:19:35.428Z,1.50
2023-02-15T06:22:02.189Z,1.50
2023-02-15T06:24:29.042Z,2.20
2023-02-15T06:26:55.780Z,1.60
2023-02-15T06:29:22.773Z,1.60
2023-02-15T06:31:49.818Z,1.50
2023-02-15T06:34:16.939Z,1.70
2023-02-15T06:36:43.958Z,1.80
2023-02-15T06:39:10.761Z,1.90
2023-02-15T06:41:37.524Z,1.80
2023-02-15T06:44:04.521Z,2.20
2023-02-15T06:46:31.997Z,1.90
2023-02-15T06:48:58.758Z,2.00
2023-02-15T06:51:25.510Z,2.00
2023-02-15T06:53:52.248Z,2.00
2023-02-15T06:56:19.043Z,2.00
2023-02-15T06:58:50.453Z,2.00
2023-02-15T07:01:17.329Z,2.60
2023-02-15T07:03:44.155Z,2.10
2023-02-15T07:06:11.723Z,1.90
2023-02-15T07:08:40.210Z,1.90
2023-02-15T07:11:26.145Z,2.00
2023-02-15T07:13:55.571Z,1.90
2023-02-15T07:16:22.424Z,2.10
2023-02-15T07:18:49.417Z,1.80
2023-02-15T07:21:16.134Z,2.10
2023-02-15T07:23:43.155Z,2.20
2023-02-15T07:26:09.953Z,2.00
2023-02-15T07:28:37.434Z,2.90
2023-02-15T07:31:05.346Z,2.00
2023-02-15T07:33:33.334Z,2.60
2023-02-15T07:36:03.292Z,2.70
2023-02-15T07:38:41.973Z,2.40
2023-02-15T07:41:12.221Z,2.40
2023-02-15T07:43:41.445Z,2.50
2023-02-15T07:46:13.646Z,2.40
2023-02-15T07:48:41.911Z,2.50
2023-02-15T07:51:11.683Z,2.70
2023-02-15T07:53:39.951Z,2.10
2023-02-15T07:56:11.060Z,3.30
2023-02-15T07:58:54.022Z,2.20
2023-02-15T08:01:26.972Z,2.20
2023-02-15T08:03:55.294Z,2.40
2023-02-15T08:06:24.015Z,2.20
2023-02-15T08:08:51.090Z,2.40
2023-02-15T08:11:27.261Z,2.70
2023-02-15T08:14:00.463Z,2.80
2023-02-15T08:16:39.344Z,2.80
2023-02-15T08:19:12.480Z,2.70
2023-02-15T08:21:41.782Z,2.80
2023-02-15T08:24:09.871Z,3.00
2023-02-15T08:26:38.324Z,3.10
2023-02-15T08:29:07.648Z,3.30
2023-02-15T08:31:36.442Z,3.40
2023-02-15T08:34:03.562Z,3.50
2023-02-15T08:36:32.571Z,3.50
2023-02-15T08:39:01.724Z,3.60
2023-02-15T08:41:32.558Z,4.00
2023-02-15T08:44:02.304Z,3.90
2023-02-15T08:46:31.618Z,4.10
2023-02-15T08:48:59.393Z,4.50
2023-02-15T08:51:34.777Z,4.90
2023-02-15T08:54:06.293Z,5.10
2023-02-15T08:56:38.409Z,5.10
2023-02-15T08:59:06.590Z,5.20
2023-02-15T09:01:35.339Z,5.30
2023-02-15T09:04:22.841Z,5.50
2023-02-15T09:06:58.412Z,5.60
2023-02-15T09:09:28.596Z,5.70
2023-02-15T09:11:59.486Z,5.70
2023-02-15T09:14:27.761Z,6.00
2023-02-15T09:16:55.302Z,6.20
2023-02-15T09:19:23.909Z,6.40
2023-02-15T09:21:51.211Z,6.60
2023-02-15T09:24:19.110Z,6.70
2023-02-15T09:26:48.212Z,6.90
2023-02-15T09:29:17.112Z,7.10
2023-02-15T09:31:47.321Z,7.40
2023-02-15T09:34:19.471Z,7.40
2023-02-15T09:36:47.662Z,7.40
2023-02-15T09:39:17.918Z,7.60
2023-02-15T09:41:56.945Z,7.80
2023-02-15T09:44:42.788Z,8.00
2023-02-15T09:47:16.317Z,8.00
2023-02-15T09:50:04.331Z,7.90
2023-02-15T09:52:54.739Z,8.10
2023-02-15T09:55:52.528Z,8.20
2023-02-15T09:58:19.560Z,8.30
2023-02-15T10:01:01.756Z,8.50
2023-02-15T10:03:47.115Z,8.70
2023-02-15T10:06:17.129Z,9.00
2023-02-15T10:08:59.208Z,10.10
2023-02-15T10:11:51.058Z,9.20
2023-02-15T10:14:40.271Z,9.10
2023-02-15T10:17:42.809Z,9.30
2023-02-15T10:20:31.821Z,9.30
2023-02-15T10:23:01.754Z,9.70
2023-02-15T10:25:57.807Z,9.70
2023-02-15T10:28:45.440Z,10.00
2023-02-15T10:31:25.990Z,10.00
2023-02-15T10:34:10.864Z,10.20
2023-02-15T10:37:06.382Z,10.20
2023-02-15T10:39:57.909Z,10.40
2023-02-15T10:42:51.598Z,10.50
2023-02-15T10:45:24.885Z,10.80
2023-02-15T10:48:00.988Z,10.60
2023-02-15T10:51:03.448Z,10.80
2023-02-15T10:53:48.466Z,11.00
2023-02-15T10:56:32.925Z,10.90
2023-02-15T10:59:02.704Z,11.10
2023-02-15T11:01:52.683Z,11.40
2023-02-15T11:04:55.220Z,11.30
2023-02-15T11:07:36.348Z,11.20
2023-02-15T11:10:25.361Z,11.40
2023-02-15T11:12:52.286Z,11.80
2023-02-15T11:15:36.517Z,11.90
2023-02-15T11:18:37.804Z,12.20
2023-02-15T11:21:10.000Z,12.30
2023-02-15T11:23:41.761Z,12.40
2023-02-15T11:26:16.961Z,12.10
2023-02-15T11:28:56.407Z,12.30
2023-02-15T11:31:26.693Z,12.40
2023-02-15T11:34:03.606Z,12.70
2023-02-15T11:36:39.068Z,12.90
2023-02-15T11:39:11.778Z,12.70
2023-02-15T11:41:55.189Z,12.70
2023-02-15T11:44:35.974Z,12.80
2023-02-15T11:47:03.737Z,12.60
2023-02-15T11:49:35.996Z,12.80
2023-02-15T11:52:09.178Z,13.00
2023-02-15T11:54:38.564Z,13.10
2023-02-15T11:57:27.578Z,13.00
2023-02-15T12:00:04.923Z,13.00
2023-02-15T12:02:34.543Z,13.50
2023-02-15T12:05:08.156Z,13.50
2023-02-15T12:07:49.663Z,13.80
2023-02-15T12:10:37.313Z,13.90
2023-02-15T12:13:18.010Z,14.20
2023-02-15T12:15:50.890Z,14.70
2023-02-15T12:18:40.378Z,14.70
2023-02-15T12:21:35.066Z,15.20
2023-02-15T12:24:10.751Z,15.50
2023-02-15T12:26:38.828Z,15.30
2023-02-15T12:29:17.417Z,15.80
2023-02-15T12:31:51.386Z,15.90
2023-02-15T12:34:32.007Z,14.90
2023-02-15T12:37:03.274Z,16.80
2023-02-15T12:39:32.576Z,16.10
2023-02-15T12:42:06.108Z,16.00
2023-02-15T12:44:35.922Z,16.30
2023-02-15T12:47:20.645Z,16.20
2023-02-15T12:50:12.121Z,16.40
2023-02-15T12:52:40.214Z,16.30
2023-02-15T12:55:30.592Z,17.40
2023-02-15T12:58:21.645Z,17.00
2023-02-15T13:00:48.883Z,17.40
2023-02-15T13:03:25.014Z,17.30
2023-02-15T13:05:57.872Z,17.40
2023-02-15T13:09:14.881Z,17.80
2023-02-15T13:11:43.758Z,18.10
2023-02-15T13:14:18.527Z,17.60
2023-02-15T13:16:48.243Z,17.70
2023-02-15T13:19:27.925Z,17.80
2023-02-15T13:21:56.627Z,18.20
2023-02-15T13:24:28.477Z,17.80
2023-02-15T13:27:14.093Z,18.20
2023-02-15T13:29:45.622Z,18.20
2023-02-15T13:32:24.620Z,17.80
2023-02-15T13:34:59.131Z,17.40
2023-02-15T13:37:47.359Z,18.00
2023-02-15T13:40:23.817Z,18.60
2023-02-15T13:42:50.527Z,18.50
2023-02-15T13:45:31.477Z,18.40
2023-02-15T13:47:58.325Z,18.80
2023-02-15T13:50:54.500Z,20.60
2023-02-15T13:53:37.966Z,19.00
2023-02-15T13:56:37.996Z,19.00
2023-02-15T13:59:36.054Z,18.10
2023-02-15T14:02:27.207Z,18.20
2023-02-15T14:05:23.699Z,17.80
2023-02-15T14:08:22.770Z,17.50
2023-02-15T14:10:52.779Z,18.00
2023-02-15T14:13:32.621Z,17.60
2023-02-15T14:16:04.345Z,17.70
2023-02-15T14:18:54.745Z,17.60
2023-02-15T14:21:48.100Z,18.00
2023-02-15T14:24:38.087Z,18.00
2023-02-15T14:27:28.214Z,18.50
2023-02-15T14:30:00.581Z,18.00
2023-02-15T14:32:36.537Z,18.50
2023-02-15T14:35:06.450Z,18.40
2023-02-15T14:38:03.588Z,18.30
2023-02-15T14:41:02.013Z,17.90
2023-02-15T14:43:42.233Z,18.00
2023-02-15T14:46:25.087Z,17.70
2023-02-15T14:48:57.190Z,17.50
2023-02-15T14:51:44.804Z,17.80
2023-02-15T14:54:18.644Z,17.70
2023-02-15T14:57:03.416Z,17.80
2023-02-15T14:59:47.229Z,18.40
2023-02-15T15:02:21.767Z,17.70
2023-02-15T15:05:00.844Z,17.70
2023-02-15T15:07:45.012Z,17.60
2023-02-15T15:10:18.240Z,17.70
2023-02-15T15:12:52.848Z,17.50
2023-02-15T15:15:29.023Z,17.70
2023-02-15T15:18:01.346Z,18.20
2023-02-15T15:20:28.291Z,18.40
2023-02-15T15:23:22.064Z,18.20
2023-02-15T15:26:18.120Z,17.50
2023-02-15T15:28:44.819Z,17.90
2023-02-15T15:31:36.526Z,17.50
2023-02-15T15:34:45.145Z,17.20
2023-02-15T15:37:40.017Z,17.40
2023-02-15T15:40:38.119Z,16.60
2023-02-15T15:43:17.077Z,16.90
2023-02-15T15:46:08.456Z,16.80
2023-02-15T15:48:39.138Z,16.90
2023-02-15T15:51:31.038Z,16.40
2023-02-15T15:53:58.246Z,16.00
2023-02-15T15:56:32.878Z,16.10
2023-02-15T15:59:03.257Z,16.40
2023-02-15T16:01:35.405Z,16.60
2023-02-15T16:04:02.396Z,16.40
2023-02-15T16:06:41.355Z,16.40
2023-02-15T16:09:28.587Z,15.90
2023-02-15T16:12:03.120Z,15.30
2023-02-15T16:14:41.395Z,15.20
2023-02-15T16:17:22.829Z,15.20
2023-02-15T16:19:51.355Z,13.30
2023-02-15T16:22:25.553Z,15.00
2023-02-15T16:25:13.597Z,14.80
2023-02-15T16:27:48.736Z,14.80
2023-02-15T16:30:34.793Z,14.80
2023-02-15T16:33:06.581Z,14.70
2023-02-15T16:35:34.589Z,14.80
2023-02-15T16:38:01.763Z,14.90
2023-02-15T16:40:35.369Z,14.80
2023-02-15T16:43:08.913Z,15.00
2023-02-15T16:45:38.662Z,14.90
2023-02-15T16:48:15.771Z,15.00
2023-02-15T16:50:49.147Z,15.00
2023-02-15T16:53:24.500Z,15.10
2023-02-15T16:55:57.712Z,15.20
2023-02-15T16:58:32.612Z,15.40
2023-02-15T17:01:02.384Z,15.20
2023-02-15T17:03:30.460Z,15.10
2023-02-15T17:06:02.434Z,14.90
2023-02-15T17:08:43.915Z,14.80
2023-02-15T17:11:22.718Z,14.70
2023-02-15T17:14:09.695Z,14.60
2023-02-15T17:16:42.700Z,14.70
2023-02-15T17:19:16.119Z,14.90
2023-02-15T17:21:49.299Z,15.10
2023-02-15T17:24:43.628Z,14.90
2023-02-15T17:27:24.649Z,14.90
2023-02-15T17:29:56.092Z,14.80
2023-02-15T17:32:28.735Z,14.80
2023-02-15T17:35:23.390Z,14.70
2023-02-15T17:37:50.723Z,14.90
2023-02-15T17:40:35.773Z,16.40
2023-02-15T17:43:02.978Z,14.80
2023-02-15T17:45:35.907Z,15.00
2023-02-15T17:48:06.736Z,15.20
2023-02-15T17:50:34.012Z,15.20
2023-02-15T17:53:04.238Z,15.00
2023-02-15T17:55:39.223Z,15.00
2023-02-15T17:58:12.217Z,14.80
2023-02-15T18:01:18.795Z,15.00
2023-02-15T18:04:09.475Z,15.10
2023-02-15T18:07:00.010Z,15.20
2023-02-15T18:09:45.883Z,15.10
2023-02-15T18:12:22.881Z,15.10
2023-02-15T18:14:50.779Z,15.10
2023-02-15T18:17:19.073Z,15.00
2023-02-15T18:19:46.866Z,14.80
2023-02-15T18:22:16.835Z,14.80
2023-02-15T18:24:44.062Z,14.90
2023-02-15T18:27:12.696Z,14.80
2023-02-15T18:29:40.114Z,14.60
2023-02-15T18:32:28.106Z,15.80
2023-02-15T18:34:57.801Z,14.60
2023-02-15T18:37:33.170Z,14.60
2023-02-15T18:40:01.176Z,14.40
2023-02-15T18:42:34.369Z,14.40
2023-02-15T18:45:13.859Z,14.50
2023-02-15T18:47:40.901Z,14.50
2023-02-15T18:50:09.244Z,14.50
2023-02-15T18:52:38.469Z,14.40
2023-02-15T18:55:17.948Z,14.40
2023-02-15T18:57:46.573Z,14.40
2023-02-15T19:00:22.574Z,14.30
2023-02-15T19:02:49.514Z,14.30
2023-02-15T19:05:18.153Z,14.20
2023-02-15T19:07:48.402Z,14.00
2023-02-15T19:10:27.064Z,13.90
2023-02-15T19:12:55.860Z,13.80
2023-02-15T19:15:30.316Z,13.60
2023-02-15T19:17:57.399Z,13.10
2023-02-15T19:20:31.772Z,13.00
2023-02-15T19:23:01.272Z,12.80
2023-02-15T19:25:30.433Z,12.80
2023-02-15T19:27:58.416Z,12.80
2023-02-15T19:30:29.408Z,12.90
2023-02-15T19:32:57.560Z,12.50
2023-02-15T19:35:28.334Z,12.60
2023-02-15T19:37:59.794Z,12.50
2023-02-15T19:40:30.287Z,12.60
2023-02-15T19:42:57.927Z,11.50
2023-02-15T19:45:28.290Z,12.60
2023-02-15T19:47:55.814Z,12.40
2023-02-15T19:50:26.122Z,12.30
2023-02-15T19:52:53.336Z,12.30
2023-02-15T19:55:28.781Z,12.00
2023-02-15T19:57:57.628Z,11.90
2023-02-15T20:00:42.679Z,12.00
2023-02-15T20:03:11.043Z,12.00
2023-02-15T20:05:38.896Z,12.00
2023-02-15T20:08:09.976Z,11.80
2023-02-15T20:10:36.800Z,11.90
2023-02-15T20:13:03.730Z,11.80
2023-02-15T20:15:33.466Z,11.60
2023-02-15T20:18:07.214Z,11.90
2023-02-15T20:20:43.791Z,11.70
2023-02-15T20:23:22.131Z,11.70
2023-02-15T20:25:49.584Z,11.60
2023-02-15T20:28:19.105Z,11.60
2023-02-15T20:30:46.597Z,11.50
2023-02-15T20:33:15.789Z,11.50
2023-02-15T20:35:44.092Z,11.40
2023-02-15T20:38:20.298Z,11.40
2023-02-15T20:41:06.475Z,11.50
2023-02-15T20:43:34.130Z,11.30
2023-02-15T20:46:02.093Z,11.40
2023-02-15T20:48:30.234Z,11.30
2023-02-15T20:50:58.650Z,11.20
2023-02-15T20:53:27.374Z,11.30
2023-02-15T20:55:54.545Z,11.30
2023-02-15T20:58:28.147Z,11.00
2023-02-15T21:00:56.879Z,11.00
2023-02-15T21:03:27.895Z,11.00
2023-02-15T21:05:55.008Z,11.00
2023-02-15T21:08:23.971Z,10.90
2023-02-15T21:10:52.773Z,10.80
2023-02-15T21:13:24.489Z,10.80
2023-02-15T21:15:53.208Z,10.60
2023-02-15T21:18:22.988Z,10.60
2023-02-15T21:20:52.520Z,10.60
2023-02-15T21:23:24.198Z,10.60
2023-02-15T21:25:51.439Z,10.50
2023-02-15T21:28:24.546Z,10.60
2023-02-15T21:30:54.105Z,10.60
2023-02-15T21:33:21.220Z,10.50
2023-02-15T21:35:51.679Z,10.40
2023-02-15T21:38:29.100Z,10.50
2023-02-15T21:41:16.299Z,10.60
2023-02-15T21:44:01.942Z,10.50
2023-02-15T21:46:47.651Z,10.50
2023-02-15T21:49:14.675Z,10.60
2023-02-15T21:52:00.148Z,10.30
2023-02-15T21:54:27.020Z,10.40
2023-02-15T21:56:54.079Z,10.30
2023-02-15T21:59:20.842Z,10.10
2023-02-15T22:01:50.707Z,9.90
2023-02-15T22:04:24.993Z,9.80
2023-02-15T22:06:52.259Z,9.70
2023-02-15T22:09:27.263Z,9.80
2023-02-15T22:11:55.229Z,9.80
2023-02-15T22:14:28.075Z,9.80
2023-02-15T22:16:54.850Z,9.70
2023-02-15T22:19:21.786Z,9.70
2023-02-15T22:21:48.523Z,9.60
2023-02-15T22:24:17.603Z,9.50
2023-02-15T22:26:44.509Z,9.40
2023-02-15T22:29:17.398Z,9.20
2023-02-15T22:31:44.778Z,9.30
2023-02-15T22:34:28.351Z,9.40
2023-02-15T22:36:56.267Z,9.30
2023-02-15T22:39:25.003Z,9.30
2023-02-15T22:41:58.922Z,9.00
2023-02-15T22:44:29.760Z,9.10
2023-02-15T22:46:57.515Z,9.20
2023-02-15T22:49:24.382Z,9.20
2023-02-15T22:51:51.710Z,9.10
2023-02-15T22:54:19.501Z,8.90
2023-02-15T22:56:55.371Z,9.00
2023-02-15T22:59:24.565Z,9.10
2023-02-15T23:01:51.793Z,8.90
2023-02-15T23:04:21.489Z,9.00
2023-02-15T23:06:48.954Z,8.90
2023-02-15T23:09:16.127Z,8.90
2023-02-15T23:11:44.195Z,8.90
2023-02-15T23:14:37.086Z,8.90
2023-02-15T23:17:03.852Z,8.80
2023-02-15T23:19:30.714Z,8.80
2023-02-15T23:21:57.510Z,8.80
2023-02-15T23:24:28.205Z,8.80
2023-02-15T23:27:15.953Z,8.80
2023-02-15T23:29:42.973Z,8.50
2023-02-15T23:32:13.223Z,8.50
2023-02-15T23:34:40.505Z,8.40
2023-02-15T23:37:11.916Z,8.50
2023-02-15T23:39:57.673Z,8.50
2023-02-15T23:42:30.677Z,8.50
2023-02-15T23:44:57.836Z,8.50
2023-02-15T23:47:47.739Z,8.40
2023-02-15T23:50:19.823Z,8.30
2023-02-15T23:52:46.852Z,8.30
2023-02-15T23:55:15.308Z,8.30
2023-02-15T23:57:43.053Z,8.10
